Time;durP1;ratioP1;P1;durP2;ratioP2;P2;SDS_P1;SDS_P2;PMS_P1;PMS_P2;Temp;Humidity;BMP_temperature;BMP_pressure;BME280_temperature;BME280_humidity;BME280_pressure;Samples;Min_cycle;Max_cycle;Signal;HPM_P1;HPM_P2
2021/01/02 00:00:55;;;;;;;39.10;20.20;;;5.50;92.30;;;;;;5077061;28;20368;-75
2021/01/02 00:03:40;;;;;;;42.60;21.90;;;5.50;92.30;;;;;;5077025;28;20051;-75
2021/01/02 00:06:28;;;;;;;;;;;5.60;92.30;;;;;;5077410;28;20021;-75
2021/01/02 00:09:22;;;;;;;38.20;18.83;;;5.60;92.30;;;;;;5076624;28;19970;-74
2021/01/02 00:12:06;;;;;;;35.75;19.00;;;5.50;92.30;;;;;;5076475;28;20036;-75
2021/01/02 00:14:40;;;;;;;39.40;20.33;;;5.50;92.30;;;;;;5076810;28;20024;-75
2021/01/02 00:17:23;;;;;;;;;;;5.50;92.20;;;;;;5077013;28;20056;-75
2021/01/02 00:20:14;;;;;;;41.67;19.40;;;5.50;92.20;;;;;;5076676;28;19950;-75
2021/01/02 00:22:45;;;;;;;38.67;19.47;;;5.50;92.20;;;;;;5075520;28;20518;-74
2021/01/02 00:25:13;;;;;;;41.70;21.63;;;5.40;92.20;;;;;;5075272;28;20103;-75
2021/01/02 00:27:53;;;;;;;42.13;21.43;;;5.50;92.50;;;;;;5076545;28;20028;-75
2021/01/02 00:30:54;;;;;;;43.03;21.30;;;5.40;92.20;;;;;;5076456;28;20032;-75
2021/01/02 00:33:27;;;;;;;42.83;21.87;;;5.50;92.30;;;;;;5075152;28;20077;-75
2021/01/02 00:36:10;;;;;;;46.05;23.60;;;5.50;92.30;;;;;;5076320;28;20562;-75
2021/01/02 00:38:38;;;;;;;40.13;21.63;;;5.50;92.30;;;;;;5076520;28;20522;-75
2021/01/02 00:41:07;;;;;;;38.03;21.43;;;5.50;92.60;;;;;;5075062;28;20062;-75
2021/01/02 00:43:33;;;;;;;45.23;23.10;;;5.40;92.30;;;;;;5076466;28;20412;-75
2021/01/02 00:45:59;;;;;;;42.63;22.57;;;5.40;92.30;;;;;;5076058;28;20118;-75
2021/01/02 00:48:26;;;;;;;44.97;23.23;;;5.40;92.30;;;;;;5075889;28;20075;-76
2021/01/02 00:50:54;;;;;;;48.97;24.30;;;5.40;92.30;;;;;;5075467;28;20039;-75
2021/01/02 00:53:55;;;;;;;42.60;23.47;;;5.40;92.30;;;;;;5075877;28;20016;-73
2021/01/02 00:56:29;;;;;;;44.00;23.70;;;5.40;92.40;;;;;;5075948;28;20029;-74
2021/01/02 00:59:31;;;;;;;44.53;23.73;;;5.40;92.30;;;;;;5075812;28;20056;-74
2021/01/02 01:02:32;;;;;;;45.03;23.00;;;5.40;92.30;;;;;;5076220;28;20078;-74
2021/01/02 01:05:08;;;;;;;48.17;25.77;;;5.40;92.30;;;;;;5074523;28;20025;-73
2021/01/02 01:07:36;;;;;;;46.70;24.13;;;5.40;92.30;;;;;;5075475;28;20541;-74
2021/01/02 01:10:09;;;;;;;44.40;24.53;;;5.30;92.30;;;;;;5075658;28;20064;-74
2021/01/02 01:12:41;;;;;;;38.10;21.27;;;5.40;92.40;;;;;;5075564;28;20024;-74
2021/01/02 01:15:08;;;;;;;44.57;22.73;;;5.30;92.30;;;;;;5075723;28;20052;-74
2021/01/02 01:17:48;;;;;;;42.17;22.17;;;5.30;92.40;;;;;;5074440;28;20073;-74
2021/01/02 01:20:17;;;;;;;43.20;23.23;;;5.40;92.40;;;;;;5075425;28;20029;-74
2021/01/02 01:22:58;;;;;;;47.00;22.93;;;5.40;92.40;;;;;;5075500;28;20432;-74
2021/01/02 01:25:51;;;;;;;49.30;25.50;;;5.40;92.40;;;;;;5075455;28;20039;-74
2021/01/02 01:28:24;;;;;;;47.10;23.07;;;5.30;92.30;;;;;;5075181;28;20116;-73
2021/01/02 01:30:54;;;;;;;46.30;23.87;;;5.30;92.30;;;;;;5074017;28;20375;-74
2021/01/02 01:33:28;;;;;;;44.33;23.87;;;5.30;92.30;;;;;;5075614;28;20025;-73
2021/01/02 01:36:02;;;;;;;43.67;23.23;;;5.30;92.30;;;;;;5075234;28;20077;-74
2021/01/02 01:38:29;;;;;;;46.08;23.15;;;5.20;92.60;;;;;;5075268;28;20518;-74
2021/01/02 01:41:16;;;;;;;42.03;22.53;;;5.20;92.30;;;;;;5075125;28;20539;-74
2021/01/02 01:44:10;;;;;;;47.77;24.97;;;5.20;92.30;;;;;;5075165;28;20092;-74
2021/01/02 01:46:53;;;;;;;44.50;23.92;;;5.20;92.30;;;;;;5073491;28;20048;-74
2021/01/02 01:49:30;;;;;;;40.97;22.07;;;5.10;92.30;;;;;;5074924;28;20029;-73
2021/01/02 01:52:03;;;;;;;46.77;24.23;;;5.30;92.40;;;;;;5075294;28;20074;-73
2021/01/02 01:55:04;;;;;;;43.17;23.77;;;5.10;92.30;;;;;;5074967;28;20017;-74
2021/01/02 01:57:38;;;;;;;39.70;21.93;;;5.20;92.40;;;;;;5074840;28;20492;-74
2021/01/02 02:00:10;;;;;;;42.80;24.20;;;5.10;92.30;;;;;;5074821;28;20031;-74
2021/01/02 02:02:45;;;;;;;41.00;22.07;;;5.10;92.30;;;;;;5075221;28;20064;-81
2021/01/02 02:05:13;;;;;;;41.60;24.30;;;5.10;92.40;;;;;;5082098;28;20033;-82
2021/01/02 02:08:02;;;;;;;43.57;23.23;;;5.10;92.40;;;;;;5081962;28;20465;-81
2021/01/02 02:11:00;;;;;;;43.10;24.33;;;5.10;92.40;;;;;;5083055;28;20032;-81
2021/01/02 02:13:32;;;;;;;41.27;22.73;;;5.10;92.40;;;;;;5059939;28;20036;-81
2021/01/02 02:15:59;;;;;;;43.23;23.67;;;5.10;92.40;;;;;;5073597;28;20020;-81
2021/01/02 02:18:27;;;;;;;44.10;23.40;;;5.10;92.30;;;;;;5074586;28;20547;-81
2021/01/02 02:20:58;;;;;;;43.53;23.27;;;5.10;92.30;;;;;;5074565;28;20372;-81
2021/01/02 02:23:42;;;;;;;42.63;24.30;;;5.10;92.30;;;;;;5073340;28;20358;-81
2021/01/02 02:26:13;;;;;;;43.97;25.80;;;5.10;92.40;;;;;;5073127;28;20032;-81
2021/01/02 02:28:57;;;;;;;42.80;25.27;;;5.10;92.30;;;;;;5074653;28;20391;-79
2021/01/02 02:31:25;;;;;;;33.63;19.48;;;5.10;92.40;;;;;;5088772;28;20426;-81
2021/01/02 02:33:56;;;;;;;43.00;25.57;;;5.10;92.30;;;;;;5086357;28;20033;-81
2021/01/02 02:36:24;;;;;;;51.90;25.80;;;5.10;92.30;;;;;;5091436;28;20080;-82
2021/01/02 02:38:51;;;;;;;47.83;26.33;;;5.00;92.30;;;;;;5089344;28;20024;-82
2021/01/02 02:41:21;;;;;;;47.53;26.90;;;5.00;92.30;;;;;;5084076;28;20024;-82
2021/01/02 02:43:52;;;;;;;47.57;25.23;;;5.00;92.30;;;;;;5084720;28;20140;-82
2021/01/02 02:46:20;;;;;;;42.93;24.00;;;5.00;92.30;;;;;;5089037;28;20104;-82
2021/01/02 02:48:47;;;;;;;47.27;26.03;;;5.00;92.30;;;;;;5091346;28;20043;-82
2021/01/02 02:51:15;;;;;;;40.93;24.90;;;5.00;92.30;;;;;;5091261;28;20439;-82
2021/01/02 02:53:42;;;;;;;42.77;23.83;;;5.00;92.40;;;;;;5090729;28;20001;-82
2021/01/02 02:56:07;;;;;;;41.10;23.77;;;4.90;92.30;;;;;;5090394;28;20037;-82
2021/01/02 02:58:33;;;;;;;41.13;24.43;;;5.00;92.40;;;;;;5080201;28;20141;-82
2021/01/02 03:00:58;;;;;;;40.43;25.20;;;5.00;92.40;;;;;;5073091;28;20023;-82
2021/01/02 03:03:26;;;;;;;48.10;25.37;;;5.00;92.40;;;;;;5073986;28;20039;-82
2021/01/02 03:05:56;;;;;;;43.73;24.73;;;4.90;92.40;;;;;;5073363;28;20035;-83
2021/01/02 03:08:22;;;;;;;42.87;23.67;;;5.00;92.30;;;;;;5074068;28;20041;-83
2021/01/02 03:10:48;;;;;;;43.77;24.10;;;5.00;92.40;;;;;;5056133;28;20038;-82
2021/01/02 03:13:13;;;;;;;42.37;24.67;;;5.00;92.40;;;;;;5072430;28;20036;-82
2021/01/02 03:15:41;;;;;;;44.53;24.90;;;5.00;92.40;;;;;;5073291;28;20073;-83
2021/01/02 03:18:07;;;;;;;40.40;23.83;;;4.90;92.40;;;;;;5056101;28;20128;-83
2021/01/02 03:20:33;;;;;;;41.33;22.90;;;4.90;92.40;;;;;;5073844;28;20029;-83
2021/01/02 03:22:58;;;;;;;43.00;24.73;;;4.90;92.40;;;;;;5072914;28;20033;-82
2021/01/02 03:25:24;;;;;;;45.97;25.77;;;4.90;92.30;;;;;;5072749;28;20029;-82
2021/01/02 03:27:54;;;;;;;42.53;23.00;;;5.00;92.30;;;;;;5072378;28;20086;-82
2021/01/02 03:30:21;;;;;;;38.97;23.40;;;4.90;92.30;;;;;;5072282;28;20056;-82
2021/01/02 03:32:46;;;;;;;47.27;24.73;;;4.90;92.30;;;;;;5055948;28;20025;-82
2021/01/02 03:35:14;;;;;;;42.60;24.83;;;4.90;92.30;;;;;;5073782;28;20386;-82
2021/01/02 03:37:43;;;;;;;40.83;24.07;;;4.90;92.30;;;;;;5072294;28;20071;-82
2021/01/02 03:40:11;;;;;;;39.83;23.50;;;5.00;92.30;;;;;;5073342;28;20071;-83
2021/01/02 03:42:41;;;;;;;41.67;22.90;;;4.90;92.30;;;;;;5055492;28;20395;-83
2021/01/02 03:45:09;;;;;;;42.03;23.33;;;4.90;92.30;;;;;;5071705;28;20029;-83
2021/01/02 03:47:35;;;;;;;40.53;24.03;;;4.90;92.30;;;;;;5073254;28;20045;-83
2021/01/02 03:50:02;;;;;;;41.17;24.70;;;4.80;92.30;;;;;;5073092;28;20031;-83
2021/01/02 03:52:28;;;;;;;41.20;24.50;;;4.80;92.30;;;;;;5073201;28;20055;-82
2021/01/02 03:54:54;;;;;;;43.87;24.33;;;4.90;92.30;;;;;;5073099;28;20020;-82
2021/01/02 03:57:19;;;;;;;39.97;23.33;;;4.80;92.30;;;;;;5072151;28;20511;-82
2021/01/02 03:59:45;;;;;;;42.60;24.23;;;4.80;92.30;;;;;;5072067;28;20029;-82
2021/01/02 04:02:11;;;;;;;41.63;24.00;;;4.80;92.40;;;;;;5073247;28;20104;-82
2021/01/02 04:04:36;;;;;;;42.07;24.30;;;4.80;92.40;;;;;;5055060;28;20032;-83
2021/01/02 04:07:03;;;;;;;42.67;24.73;;;4.80;92.30;;;;;;5073155;28;20025;-83
2021/01/02 04:09:29;;;;;;;41.27;24.33;;;4.90;92.30;;;;;;5073048;28;20020;-82
2021/01/02 04:11:55;;;;;;;43.03;24.90;;;4.80;92.30;;;;;;5071801;28;20490;-82
2021/01/02 04:14:20;;;;;;;40.33;22.77;;;4.80;92.50;;;;;;5072996;28;20035;-82
2021/01/02 04:16:46;;;;;;;44.13;23.97;;;4.90;92.30;;;;;;5071770;28;20029;-82
2021/01/02 04:19:12;;;;;;;39.93;24.23;;;4.90;92.30;;;;;;5054759;28;20119;-82
2021/01/02 04:21:39;;;;;;;40.10;23.90;;;4.80;92.30;;;;;;5072932;28;20492;-82
2021/01/02 04:24:06;;;;;;;38.57;23.63;;;4.80;92.30;;;;;;5055027;28;20029;-82
2021/01/02 04:26:32;;;;;;;44.00;26.03;;;4.80;92.50;;;;;;5076331;28;20055;-82
2021/01/02 04:28:58;;;;;;;45.90;26.87;;;4.80;92.30;;;;;;5075245;28;20024;-82
2021/01/02 04:31:33;;;;;;;46.87;28.07;;;4.80;92.20;;;;;;5075600;28;20016;-82
2021/01/02 04:33:59;;;;;;;50.80;28.13;;;4.80;92.20;;;;;;5074958;28;20472;-82
2021/01/02 04:36:25;;;;;;;49.47;27.83;;;4.80;92.40;;;;;;5058570;28;20085;-82
2021/01/02 04:38:50;;;;;;;44.87;26.27;;;4.80;92.10;;;;;;5075304;28;20384;-82
2021/01/02 04:41:16;;;;;;;46.23;27.20;;;4.80;92.10;;;;;;5076543;28;20028;-82
2021/01/02 04:43:45;;;;;;;41.80;25.60;;;4.80;92.10;;;;;;5076403;28;20097;-82
2021/01/02 04:46:13;;;;;;;47.63;27.47;;;4.80;92.20;;;;;;5075098;28;20036;-82
2021/01/02 04:48:40;;;;;;;43.77;26.63;;;4.80;92.20;;;;;;5074892;28;20484;-82
2021/01/02 04:51:11;;;;;;;49.37;27.77;;;4.80;92.20;;;;;;5075200;28;20078;-82
2021/01/02 04:53:36;;;;;;;44.40;26.33;;;4.80;92.20;;;;;;5074930;28;20024;-82
2021/01/02 04:56:06;;;;;;;47.60;27.77;;;4.70;92.20;;;;;;5058127;28;20047;-82
2021/01/02 04:58:37;;;;;;;48.40;28.40;;;4.80;92.20;;;;;;5075015;28;20029;-82
2021/01/02 05:01:04;;;;;;;50.70;29.10;;;4.80;92.10;;;;;;5074677;28;20432;-82
2021/01/02 05:03:33;;;;;;;47.60;29.50;;;4.80;92.10;;;;;;5074920;28;20052;-82
2021/01/02 05:05:59;;;;;;;53.40;30.40;;;4.70;92.00;;;;;;5074978;28;20025;-82
2021/01/02 05:08:25;;;;;;;53.03;30.87;;;4.70;91.90;;;;;;5075774;28;20074;-82
2021/01/02 05:11:00;;;;;;;52.23;29.87;;;4.70;92.00;;;;;;5076137;28;20456;-82
2021/01/02 05:13:31;;;;;;;48.40;28.90;;;4.70;92.00;;;;;;5075956;28;20025;-82
2021/01/02 05:16:20;;;;;;;53.97;31.30;;;4.70;92.00;;;;;;5073596;28;20016;-82
2021/01/02 05:19:13;;;;;;;53.20;29.50;;;4.70;92.00;;;;;;5075669;28;20024;-82
2021/01/02 05:21:49;;;;;;;51.03;29.40;;;4.70;92.00;;;;;;5072574;28;20506;-82
2021/01/02 05:24:20;;;;;;;54.67;31.30;;;4.60;91.90;;;;;;5074188;28;20028;-82
2021/01/02 05:26:52;;;;;;;51.07;30.27;;;4.60;91.90;;;;;;5074529;28;20085;-82
2021/01/02 05:29:27;;;;;;;54.27;31.53;;;4.60;91.90;;;;;;5075696;28;20033;-82
2021/01/02 05:31:57;;;;;;;54.00;32.70;;;4.60;91.90;;;;;;5075611;28;20048;-82
2021/01/02 05:34:26;;;;;;;60.90;33.87;;;4.60;92.00;;;;;;5075330;28;20025;-82
2021/01/02 05:37:01;;;;;;;56.77;32.50;;;4.60;91.90;;;;;;5074479;28;20456;-81
2021/01/02 05:39:41;;;;;;;53.50;32.37;;;4.60;91.90;;;;;;5073969;28;20063;-81
2021/01/02 05:42:08;;;;;;;60.60;32.97;;;4.50;91.80;;;;;;5075359;28;20074;-80
2021/01/02 05:44:38;;;;;;;59.47;31.87;;;4.50;91.90;;;;;;5074946;28;20029;-81
2021/01/02 05:47:05;;;;;;;58.37;33.63;;;4.50;91.90;;;;;;5073519;28;20040;-81
2021/01/02 05:49:33;;;;;;;58.07;32.17;;;4.50;91.90;;;;;;5074107;28;20589;-81
2021/01/02 05:52:04;;;;;;;55.70;32.70;;;4.50;91.90;;;;;;5075152;28;20090;-80
2021/01/02 05:54:31;;;;;;;52.47;30.03;;;4.50;92.00;;;;;;5074806;28;20081;-81
2021/01/02 05:56:59;;;;;;;58.90;31.87;;;4.50;91.90;;;;;;5074854;28;20107;-81
2021/01/02 05:59:32;;;;;;;55.73;32.57;;;4.50;91.90;;;;;;5074786;28;20555;-81
2021/01/02 06:01:58;;;;;;;54.30;31.00;;;4.50;91.90;;;;;;5073562;28;20017;-81
2021/01/02 06:04:24;;;;;;;53.07;31.43;;;4.40;91.90;;;;;;5074800;28;20047;-81
2021/01/02 06:07:08;;;;;;;54.17;31.97;;;4.50;92.00;;;;;;5073502;28;20028;-81
2021/01/02 06:09:34;;;;;;;56.78;31.95;;;4.50;92.00;;;;;;5074715;28;20484;-82
2021/01/02 06:12:03;;;;;;;54.73;29.87;;;4.50;92.00;;;;;;5074753;28;20032;-81
2021/01/02 06:14:32;;;;;;;63.10;32.83;;;4.50;92.00;;;;;;5074914;28;20047;-82
2021/01/02 06:17:05;;;;;;;61.07;34.00;;;4.50;91.90;;;;;;5074763;28;20028;-74
2021/01/02 06:19:32;;;;;;;62.37;33.37;;;4.50;92.00;;;;;;5072343;28;20032;-74
2021/01/02 06:21:58;;;;;;;64.67;35.90;;;4.50;91.90;;;;;;5071484;28;20429;-75
2021/01/02 06:24:25;;;;;;;61.33;35.67;;;4.40;91.90;;;;;;5072935;28;20052;-74
2021/01/02 06:26:52;;;;;;;59.77;34.37;;;4.40;91.90;;;;;;5085225;28;20350;-74
2021/01/02 06:29:18;;;;;;;60.57;34.40;;;4.40;91.80;;;;;;5094413;28;20435;-74
2021/01/02 06:31:44;;;;;;;55.70;31.97;;;4.40;92.00;;;;;;5092621;28;20077;-75
2021/01/02 06:34:11;;;;;;;60.57;34.63;;;4.40;92.00;;;;;;5092322;28;20063;-74
2021/01/02 06:36:39;;;;;;;69.23;36.10;;;4.40;92.00;;;;;;5094304;28;20020;-74
2021/01/02 06:39:31;;;;;;;58.23;33.70;;;4.40;92.00;;;;;;5094124;28;20047;-74
2021/01/02 06:41:58;;;;;;;64.03;34.93;;;4.40;92.10;;;;;;5093373;28;20475;-74
2021/01/02 06:44:45;;;;;;;64.90;33.93;;;4.40;92.00;;;;;;5094186;28;20056;-74
2021/01/02 06:47:21;;;;;;;70.57;35.67;;;4.40;92.00;;;;;;5093341;28;20184;-74
2021/01/02 06:49:47;;;;;;;64.23;34.40;;;4.40;91.90;;;;;;5094420;28;20020;-74
2021/01/02 06:52:32;;;;;;;63.43;35.13;;;4.40;92.00;;;;;;5094176;28;20020;-74
2021/01/02 06:55:24;;;;;;;64.23;36.10;;;4.40;92.00;;;;;;5094488;28;20371;-73
2021/01/02 06:57:51;;;;;;;67.83;35.73;;;4.40;92.00;;;;;;5093836;28;20035;-81
2021/01/02 07:00:27;;;;;;;62.87;36.13;;;4.40;92.00;;;;;;5094116;28;20364;-81
2021/01/02 07:02:54;;;;;;;63.80;34.73;;;4.30;92.00;;;;;;5092743;28;20088;-81
2021/01/02 07:05:42;;;;;;;68.30;36.07;;;4.30;92.00;;;;;;5093776;28;20031;-81
2021/01/02 07:08:56;;;;;;;61.83;33.93;;;4.30;92.00;;;;;;5093876;28;20031;-82
2021/01/02 07:11:31;;;;;;;70.00;35.00;;;4.30;92.10;;;;;;5083545;28;20031;-82
2021/01/02 07:14:15;;;;;;;60.23;34.00;;;4.30;92.10;;;;;;5093814;28;20020;-82
2021/01/02 07:16:46;;;;;;;64.80;35.90;;;4.30;92.10;;;;;;5094087;28;20020;-82
2021/01/02 07:19:27;;;;;;;62.03;33.70;;;4.30;92.10;;;;;;5093860;28;20035;-82
2021/01/02 07:21:59;;;;;;;70.27;37.07;;;4.30;92.10;;;;;;5093078;28;20028;-82
2021/01/02 07:24:37;;;;;;;69.73;35.17;;;4.40;92.10;;;;;;5093626;28;20039;-82
2021/01/02 07:27:08;;;;;;;71.97;37.73;;;4.30;92.10;;;;;;5092482;28;20048;-81
2021/01/02 07:29:42;;;;;;;74.83;39.00;;;4.30;92.10;;;;;;5093579;28;20199;-82
2021/01/02 07:32:19;;;;;;;66.72;35.40;;;4.30;92.10;;;;;;5093658;28;20030;-82
2021/01/02 07:34:50;;;;;;;72.30;35.27;;;4.30;92.10;;;;;;5093557;28;20016;-82
2021/01/02 07:37:19;;;;;;;69.13;36.97;;;4.30;92.10;;;;;;5092262;28;20048;-82
2021/01/02 07:39:55;;;;;;;66.23;36.80;;;4.30;92.10;;;;;;5093566;28;20028;-83
2021/01/02 07:42:22;;;;;;;68.10;36.10;;;4.30;92.10;;;;;;5081570;28;20021;-82
2021/01/02 07:44:55;;;;;;;67.60;35.63;;;4.30;92.20;;;;;;5077849;28;20029;-83
2021/01/02 07:47:21;;;;;;;67.07;35.27;;;4.30;92.20;;;;;;5088454;28;20074;-82
2021/01/02 07:49:47;;;;;;;73.60;37.60;;;4.30;92.30;;;;;;5075195;28;20028;-82
2021/01/02 07:52:12;;;;;;;71.83;37.83;;;4.30;92.30;;;;;;5075356;28;20024;-82
2021/01/02 07:54:38;;;;;;;69.30;35.67;;;4.30;92.40;;;;;;5093632;28;20024;-82
2021/01/02 07:57:08;;;;;;;69.23;36.43;;;4.30;92.40;;;;;;5091709;28;20393;-82
2021/01/02 07:59:40;;;;;;;71.50;36.63;;;4.30;92.30;;;;;;5089109;28;20063;-82
2021/01/02 08:02:09;;;;;;;73.97;37.97;;;4.30;92.30;;;;;;5083662;28;20036;-82
2021/01/02 08:04:36;;;;;;;71.03;37.10;;;4.30;92.30;;;;;;5084203;28;20028;-83
2021/01/02 08:07:06;;;;;;;72.43;34.93;;;4.30;92.40;;;;;;5093800;28;20036;-82
2021/01/02 08:09:34;;;;;;;70.83;35.77;;;4.40;92.40;;;;;;5079183;28;20028;-83
2021/01/02 08:12:01;;;;;;;72.20;36.00;;;4.40;92.40;;;;;;5097278;28;20109;-83
2021/01/02 08:14:30;;;;;;;70.23;34.70;;;4.40;92.50;;;;;;5097052;28;20031;-83
2021/01/02 08:17:00;;;;;;;66.03;33.70;;;4.40;92.50;;;;;;5095651;28;20028;-82
2021/01/02 08:19:30;;;;;;;71.10;36.20;;;4.50;92.50;;;;;;5095815;28;20060;-78
2021/01/02 08:21:56;;;;;;;78.17;37.73;;;4.40;92.50;;;;;;5086884;28;20055;-81
2021/01/02 08:24:21;;;;;;;72.27;36.73;;;4.50;92.50;;;;;;5075294;28;20473;-78
2021/01/02 08:26:48;;;;;;;78.23;38.67;;;4.40;92.40;;;;;;5075293;28;20078;-77
2021/01/02 08:29:14;;;;;;;81.40;39.60;;;4.50;92.40;;;;;;5076366;28;20079;-78
2021/01/02 08:32:10;;;;;;;71.07;36.43;;;4.50;92.40;;;;;;5075023;28;20029;-77
2021/01/02 08:34:36;;;;;;;78.57;38.63;;;4.50;92.70;;;;;;5076307;28;20395;-78
2021/01/02 08:37:14;;;;;;;81.17;36.63;;;4.40;92.40;;;;;;5076180;28;20074;-77
2021/01/02 08:39:41;;;;;;;75.23;33.87;;;4.50;92.50;;;;;;5074710;28;20089;-77
2021/01/02 08:42:07;;;;;;;72.53;37.53;;;4.50;92.40;;;;;;5076425;28;20032;-82
2021/01/02 08:44:36;;;;;;;82.33;38.13;;;4.50;92.40;;;;;;5076466;28;20349;-78
2021/01/02 08:47:05;;;;;;;75.13;35.30;;;4.50;92.50;;;;;;5076037;28;20396;-78
2021/01/02 08:49:31;;;;;;;79.00;36.70;;;4.60;92.50;;;;;;5075021;28;20064;-79
2021/01/02 08:52:22;;;;;;;89.13;39.77;;;4.50;92.40;;;;;;5074991;28;20472;-78
2021/01/02 08:54:54;;;;;;;83.43;38.23;;;4.50;92.40;;;;;;5076117;28;20471;-78
2021/01/02 08:57:31;;;;;;;79.27;38.07;;;4.40;92.40;;;;;;5074742;28;20017;-77
2021/01/02 09:00:09;;;;;;;79.63;37.20;;;4.50;92.40;;;;;;5076081;28;20017;-80
2021/01/02 09:02:35;;;;;;;78.17;37.30;;;4.50;92.40;;;;;;5076796;28;20025;-80
2021/01/02 09:05:10;;;;;;;73.70;35.27;;;4.40;92.40;;;;;;5087219;28;20471;-81
2021/01/02 09:07:36;;;;;;;82.40;38.92;;;4.40;92.50;;;;;;5085689;28;20031;-80
2021/01/02 09:10:35;;;;;;;81.83;37.90;;;4.40;92.50;;;;;;5083004;28;20076;-80
2021/01/02 09:13:04;;;;;;;72.73;35.87;;;4.40;92.50;;;;;;5086271;28;20123;-80
2021/01/02 09:15:39;;;;;;;73.17;36.23;;;4.40;92.40;;;;;;5088224;28;20020;-80
2021/01/02 09:18:05;;;;;;;86.37;37.53;;;4.40;92.50;;;;;;5095542;28;20028;-80
2021/01/02 09:20:30;;;;;;;73.93;36.10;;;4.40;92.50;;;;;;5095711;28;20524;-80
2021/01/02 09:22:56;;;;;;;70.90;38.00;;;4.40;92.50;;;;;;5095445;28;20467;-80
2021/01/02 09:25:32;;;;;;;81.27;37.63;;;4.50;92.60;;;;;;5093690;28;20035;-80
2021/01/02 09:28:10;;;;;;;80.20;39.47;;;4.50;92.60;;;;;;5094991;28;20028;-80
2021/01/02 09:30:35;;;;;;;75.77;37.00;;;4.50;92.60;;;;;;5095323;28;20028;-80
2021/01/02 09:33:01;;;;;;;78.23;37.07;;;4.50;92.50;;;;;;5094038;28;20028;-80
2021/01/02 09:35:27;;;;;;;82.00;38.33;;;4.50;92.50;;;;;;5081756;28;20488;-80
2021/01/02 09:37:52;;;;;;;79.63;37.67;;;4.40;92.50;;;;;;5079734;28;20033;-80
2021/01/02 09:40:20;;;;;;;82.00;38.53;;;4.40;92.50;;;;;;5074043;28;20082;-80
2021/01/02 09:42:46;;;;;;;85.73;37.43;;;4.40;92.60;;;;;;5073953;28;20023;-80
2021/01/02 09:45:12;;;;;;;74.50;35.17;;;4.50;92.60;;;;;;5074336;28;20115;-80
2021/01/02 09:47:38;;;;;;;84.07;37.07;;;4.40;92.60;;;;;;5073725;28;20044;-80
2021/01/02 09:50:05;;;;;;;74.13;35.37;;;4.40;92.60;;;;;;5074550;28;20098;-82
2021/01/02 09:52:31;;;;;;;70.53;32.47;;;4.40;92.60;;;;;;5074713;28;20028;-83
2021/01/02 09:54:57;;;;;;;71.47;35.30;;;4.40;92.70;;;;;;5075913;28;20021;-83
2021/01/02 09:57:23;;;;;;;79.07;36.17;;;4.40;92.70;;;;;;5074633;28;20500;-83
2021/01/02 09:59:49;;;;;;;77.37;35.03;;;4.40;92.70;;;;;;5075638;28;20094;-83
2021/01/02 10:02:14;;;;;;;73.27;34.53;;;4.40;92.70;;;;;;5057449;28;20555;-83
2021/01/02 10:04:44;;;;;;;76.63;33.27;;;4.40;92.70;;;;;;5057305;28;20016;-83
2021/01/02 10:07:10;;;;;;;76.47;35.07;;;4.30;92.70;;;;;;5075369;28;20103;-83
2021/01/02 10:09:44;;;;;;;75.50;33.73;;;4.40;92.80;;;;;;5075055;28;20492;-83
2021/01/02 10:12:11;;;;;;;73.28;33.35;;;4.50;92.70;;;;;;5075214;28;20020;-83
2021/01/02 10:14:37;;;;;;;67.40;31.90;;;4.40;92.70;;;;;;5057196;28;20541;-83
2021/01/02 10:17:04;;;;;;;69.83;31.00;;;4.50;92.80;;;;;;5057038;28;20067;-83
2021/01/02 10:19:32;;;;;;;71.03;32.03;;;4.50;92.70;;;;;;5074715;28;20082;-83
2021/01/02 10:22:01;;;;;;;67.87;33.87;;;4.50;92.80;;;;;;5063438;28;20035;-84
2021/01/02 10:24:29;;;;;;;68.67;33.40;;;4.50;92.80;;;;;;5093571;28;20020;-83
2021/01/02 10:26:55;;;;;;;74.60;34.97;;;4.50;92.80;;;;;;5093747;28;20426;-84
2021/01/02 10:29:21;;;;;;;70.73;34.47;;;4.50;92.80;;;;;;5059986;28;20021;-84
2021/01/02 10:31:47;;;;;;;71.70;34.80;;;4.60;92.80;;;;;;5076696;28;20193;-84
2021/01/02 10:34:14;;;;;;;69.60;35.93;;;4.60;92.80;;;;;;5072876;28;20134;-83
2021/01/02 10:36:39;;;;;;;79.70;35.43;;;4.60;92.70;;;;;;5073714;28;20051;-83
2021/01/02 10:39:05;;;;;;;78.47;35.17;;;4.60;92.80;;;;;;5074310;28;20028;-83
2021/01/02 10:41:31;;;;;;;74.97;35.87;;;4.70;92.80;;;;;;5057974;28;20082;-83
2021/01/02 10:43:57;;;;;;;79.73;37.53;;;4.60;92.70;;;;;;5064262;28;20032;-82
2021/01/02 10:46:22;;;;;;;84.93;37.27;;;4.70;92.70;;;;;;5059370;28;20043;-82
2021/01/02 10:48:48;;;;;;;82.50;38.10;;;4.60;92.90;;;;;;5059599;28;20136;-82
2021/01/02 10:51:19;;;;;;;80.27;35.80;;;4.60;92.70;;;;;;5087904;28;20028;-82
2021/01/02 10:53:45;;;;;;;76.87;36.87;;;4.70;92.70;;;;;;5080639;28;20380;-82
2021/01/02 10:56:17;;;;;;;76.10;37.40;;;4.70;92.70;;;;;;5055161;28;20029;-83
2021/01/02 10:58:43;;;;;;;71.87;34.87;;;4.80;92.70;;;;;;5073972;28;20029;-83
2021/01/02 11:01:09;;;;;;;70.37;33.93;;;4.70;92.60;;;;;;5072924;28;20036;-83
2021/01/02 11:03:35;;;;;;;75.83;37.60;;;4.70;92.60;;;;;;5091835;28;20472;-84
2021/01/02 11:06:09;;;;;;;85.07;39.33;;;4.80;92.60;;;;;;5076180;28;20028;-83
2021/01/02 11:08:36;;;;;;;80.32;36.85;;;4.80;92.60;;;;;;5094121;28;20103;-83
2021/01/02 11:11:03;;;;;;;80.80;36.73;;;4.80;92.50;;;;;;5092823;28;20028;-83
2021/01/02 11:13:29;;;;;;;78.17;35.30;;;4.80;92.50;;;;;;5092891;28;20051;-84
2021/01/02 11:15:55;;;;;;;74.00;34.00;;;4.80;92.50;;;;;;5081885;28;20496;-83
2021/01/02 11:18:20;;;;;;;68.87;34.10;;;4.90;92.50;;;;;;5055829;28;20039;-83
2021/01/02 11:20:47;;;;;;;75.07;34.67;;;4.90;92.50;;;;;;5076065;28;20042;-83
2021/01/02 11:23:15;;;;;;;72.80;33.97;;;4.90;92.50;;;;;;5072319;28;20043;-83
2021/01/02 11:25:41;;;;;;;71.50;32.63;;;4.90;92.50;;;;;;5073829;28;20111;-83
2021/01/02 11:28:07;;;;;;;66.40;29.50;;;4.90;92.40;;;;;;5055647;28;20067;-84
2021/01/02 11:30:32;;;;;;;69.27;33.07;;;4.90;92.50;;;;;;5073428;28;20029;-83
2021/01/02 11:32:58;;;;;;;67.00;29.73;;;5.00;92.70;;;;;;5038862;28;20474;-83
2021/01/02 11:35:24;;;;;;;68.03;32.13;;;5.00;92.50;;;;;;5072346;28;20028;-84
2021/01/02 11:37:49;;;;;;;65.97;31.73;;;5.00;92.40;;;;;;5056091;28;20033;-84
2021/01/02 11:40:16;;;;;;;59.60;27.97;;;5.10;92.40;;;;;;5072764;28;20033;-84
2021/01/02 11:42:41;;;;;;;58.40;27.27;;;5.00;92.30;;;;;;5073297;28;20035;-85
2021/01/02 11:45:11;;;;;;;58.40;28.00;;;5.00;92.20;;;;;;5073132;28;20036;-83
2021/01/02 11:47:37;;;;;;;67.10;28.70;;;5.00;92.20;;;;;;5055672;28;20454;-83
2021/01/02 11:50:03;;;;;;;55.60;27.00;;;5.00;92.10;;;;;;5055532;28;20029;-81
2021/01/02 11:52:29;;;;;;;58.73;29.63;;;5.00;92.20;;;;;;5071902;28;20032;-82
2021/01/02 11:54:54;;;;;;;61.27;29.63;;;5.00;92.10;;;;;;5039429;28;20040;-82
2021/01/02 11:57:20;;;;;;;63.57;28.27;;;5.00;92.20;;;;;;5072005;28;20469;-82
2021/01/02 11:59:46;;;;;;;61.60;29.17;;;5.00;92.20;;;;;;5055164;28;20033;-82
2021/01/02 12:02:11;;;;;;;56.97;28.60;;;5.00;92.20;;;;;;5071623;28;20021;-82
2021/01/02 12:04:37;;;;;;;58.23;28.13;;;5.10;92.20;;;;;;5079270;28;20033;-74
2021/01/02 12:07:04;;;;;;;59.53;29.00;;;5.10;92.30;;;;;;5071812;28;20499;-75
2021/01/02 12:09:30;;;;;;;59.40;29.10;;;5.00;92.20;;;;;;5072919;28;20033;-75
2021/01/02 12:11:57;;;;;;;53.37;25.87;;;5.10;92.20;;;;;;5071629;28;20029;-75
2021/01/02 12:14:29;;;;;;;54.40;25.97;;;5.10;92.30;;;;;;5073104;28;20048;-75
2021/01/02 12:16:57;;;;;;;53.83;25.70;;;5.10;92.30;;;;;;5071645;28;20025;-75
2021/01/02 12:19:30;;;;;;;60.87;28.30;;;5.20;92.30;;;;;;5071740;28;20037;-76
2021/01/02 12:22:02;;;;;;;59.88;29.42;;;5.20;92.30;;;;;;5072791;28;20028;-75
2021/01/02 12:24:28;;;;;;;66.17;30.13;;;5.20;92.20;;;;;;5072812;28;20024;-75
2021/01/02 12:26:59;;;;;;;60.93;28.40;;;5.20;92.20;;;;;;5072742;28;20074;-75
2021/01/02 12:29:29;;;;;;;57.87;28.67;;;5.20;92.20;;;;;;5072572;28;20032;-74
2021/01/02 12:31:57;;;;;;;62.27;28.17;;;5.20;92.20;;;;;;5072702;28;20380;-75
2021/01/02 12:34:25;;;;;;;54.87;26.80;;;5.20;92.10;;;;;;5072596;28;20020;-75
2021/01/02 12:36:52;;;;;;;52.53;26.13;;;5.20;92.10;;;;;;5071457;28;20120;-74
2021/01/02 12:39:24;;;;;;;53.77;27.13;;;5.20;92.10;;;;;;5071238;28;20029;-75
2021/01/02 12:41:50;;;;;;;57.50;28.20;;;5.20;92.20;;;;;;5072755;28;20390;-75
2021/01/02 12:44:16;;;;;;;54.03;24.33;;;5.20;92.10;;;;;;5071621;28;20028;-84
2021/01/02 12:46:53;;;;;;;63.60;27.73;;;5.20;92.10;;;;;;5074626;28;20450;-83
2021/01/02 12:49:22;;;;;;;63.83;29.50;;;5.20;92.10;;;;;;5076041;28;20037;-84
2021/01/02 12:51:47;;;;;;;62.90;31.10;;;5.20;92.10;;;;;;5076127;28;20510;-84
2021/01/02 12:54:14;;;;;;;60.87;31.57;;;5.20;92.10;;;;;;5074865;28;20048;-84
2021/01/02 12:56:47;;;;;;;63.07;31.20;;;5.20;92.30;;;;;;5076240;28;20020;-84